createdAt,value
2017-06-16T00:01:14.724Z,4.80
2017-06-16T00:03:43.027Z,4.72
2017-06-16T00:06:11.313Z,4.93
2017-06-16T00:08:39.570Z,5.07
2017-06-16T00:11:07.860Z,5.12
2017-06-16T00:13:36.896Z,5.57
2017-06-16T00:16:05.191Z,4.97
2017-06-16T00:18:33.547Z,5.03
2017-06-16T00:21:01.823Z,5.10
2017-06-16T00:23:30.095Z,5.65
2017-06-16T00:25:58.375Z,4.85
2017-06-16T00:28:26.645Z,5.07
2017-06-16T00:30:54.931Z,5.50
2017-06-16T00:33:23.204Z,6.15
2017-06-16T00:35:51.494Z,5.30
2017-06-16T00:38:19.756Z,5.80
2017-06-16T00:40:48.045Z,5.28
2017-06-16T00:43:16.311Z,5.72
2017-06-16T00:45:44.600Z,5.55
2017-06-16T00:48:12.871Z,5.25
2017-06-16T00:50:41.154Z,5.30
2017-06-16T00:53:09.438Z,6.30
2017-06-16T00:55:37.709Z,5.10
2017-06-16T00:58:06.006Z,5.78
2017-06-16T01:03:34.680Z,4.93
2017-06-16T01:06:02.935Z,5.57
2017-06-16T01:08:31.215Z,5.60
2017-06-16T01:10:59.486Z,5.00
2017-06-16T01:13:27.763Z,5.03
2017-06-16T01:15:56.025Z,5.97
2017-06-16T01:18:24.316Z,5.62
2017-06-16T01:20:52.600Z,6.00
2017-06-16T01:23:20.861Z,5.55
2017-06-16T01:25:49.143Z,5.25
2017-06-16T01:28:17.413Z,5.80
2017-06-16T01:30:45.703Z,5.03
2017-06-16T01:33:13.964Z,5.00
2017-06-16T01:35:42.247Z,5.05
2017-06-16T01:38:10.515Z,6.10
2017-06-16T01:40:38.799Z,5.07
2017-06-16T01:43:07.067Z,4.57
2017-06-16T01:45:35.356Z,5.35
2017-06-16T01:48:03.620Z,4.53
2017-06-16T01:50:31.914Z,4.82
2017-06-16T01:53:00.184Z,4.90
2017-06-16T01:55:28.454Z,4.87
2017-06-16T01:57:56.731Z,4.65
2017-06-16T02:00:25.000Z,5.10
2017-06-16T02:02:53.288Z,4.30
2017-06-16T02:05:21.551Z,4.70
2017-06-16T02:07:49.827Z,4.93
2017-06-16T02:10:18.100Z,4.87
2017-06-16T02:12:47.144Z,4.65
2017-06-16T02:15:15.415Z,4.80
2017-06-16T02:17:43.723Z,4.22
2017-06-16T02:20:11.991Z,5.00
2017-06-16T02:22:40.253Z,4.30
2017-06-16T02:25:08.535Z,4.70
2017-06-16T02:27:36.811Z,4.68
2017-06-16T02:30:05.083Z,4.32
2017-06-16T02:32:33.348Z,4.97
2017-06-16T02:35:01.637Z,4.35
2017-06-16T02:37:29.905Z,3.62
2017-06-16T02:39:58.200Z,4.47
2017-06-16T02:42:26.467Z,4.47
2017-06-16T02:44:54.751Z,3.80
2017-06-16T02:47:23.025Z,4.40
2017-06-16T02:49:51.311Z,3.62
2017-06-16T02:52:19.576Z,3.92
2017-06-16T02:54:47.851Z,3.37
2017-06-16T02:57:16.131Z,3.70
2017-06-16T02:59:44.404Z,3.45
2017-06-16T03:02:12.687Z,3.65
2017-06-16T03:04:40.962Z,3.60
2017-06-16T03:07:09.237Z,3.55
2017-06-16T03:09:37.512Z,4.37
2017-06-16T03:12:05.788Z,3.60
2017-06-16T03:14:34.069Z,3.80
2017-06-16T03:17:02.354Z,4.62
2017-06-16T03:19:30.629Z,4.37
2017-06-16T03:21:58.912Z,4.00
2017-06-16T03:24:33.000Z,3.60
2017-06-16T03:27:01.285Z,3.40
2017-06-16T03:29:29.547Z,3.40
2017-06-16T03:31:57.844Z,3.67
2017-06-16T03:34:26.123Z,4.05
2017-06-16T03:36:54.418Z,3.80
2017-06-16T03:39:22.705Z,3.50
2017-06-16T03:41:52.714Z,3.67
2017-06-16T03:44:21.946Z,3.80
2017-06-16T03:46:50.983Z,4.40
2017-06-16T03:49:19.269Z,4.10
2017-06-16T03:51:47.555Z,3.92
2017-06-16T03:54:15.869Z,3.70
2017-06-16T03:56:44.896Z,4.10
2017-06-16T03:59:13.191Z,3.35
2017-06-16T04:01:41.466Z,3.85
2017-06-16T04:04:09.772Z,4.03
2017-06-16T04:06:38.047Z,3.53
2017-06-16T04:09:06.363Z,3.47
2017-06-16T04:11:34.634Z,4.00
2017-06-16T04:14:02.910Z,3.95
2017-06-16T04:16:31.198Z,3.33
2017-06-16T04:18:59.474Z,3.60
2017-06-16T04:21:27.763Z,3.15
2017-06-16T04:23:56.043Z,2.90
2017-06-16T04:26:24.336Z,3.28
2017-06-16T04:28:52.597Z,3.60
2017-06-16T04:31:20.887Z,2.92
2017-06-16T04:33:49.164Z,3.50
2017-06-16T04:36:17.455Z,3.15
2017-06-16T04:38:46.000Z,2.97
2017-06-16T04:41:14.383Z,3.10
2017-06-16T04:43:42.659Z,3.50
2017-06-16T04:46:11.360Z,3.40
2017-06-16T04:48:39.684Z,3.40
2017-06-16T04:51:07.963Z,2.90
2017-06-16T04:53:36.262Z,2.87
2017-06-16T04:56:05.437Z,3.55
2017-06-16T04:58:33.868Z,3.55
2017-06-16T05:01:02.139Z,3.00
2017-06-16T05:03:30.419Z,3.30
2017-06-16T05:05:58.695Z,3.20
2017-06-16T05:08:26.986Z,3.87
2017-06-16T05:10:55.268Z,3.37
2017-06-16T05:13:23.580Z,3.20
2017-06-16T05:15:51.852Z,3.97
2017-06-16T05:18:20.128Z,3.33
2017-06-16T05:20:48.411Z,2.72
2017-06-16T05:23:22.240Z,2.42
2017-06-16T05:25:51.299Z,3.35
2017-06-16T05:28:19.574Z,3.10
2017-06-16T05:30:47.856Z,3.28
2017-06-16T05:33:16.127Z,3.35
2017-06-16T05:35:44.412Z,3.08
2017-06-16T05:38:12.680Z,3.12
2017-06-16T05:40:40.986Z,3.60
2017-06-16T05:43:09.272Z,4.90
2017-06-16T05:45:38.336Z,2.80
2017-06-16T05:48:06.608Z,4.03
2017-06-16T05:50:34.912Z,4.20
2017-06-16T05:53:04.175Z,4.00
2017-06-16T05:55:32.462Z,6.10
2017-06-16T05:58:00.852Z,4.30
2017-06-16T06:00:29.149Z,2.90
2017-06-16T06:02:57.427Z,2.72
2017-06-16T06:05:25.754Z,2.10
2017-06-16T06:07:54.043Z,6.82
2017-06-16T06:10:22.369Z,8.90
2017-06-16T06:12:50.709Z,2.53
2017-06-16T06:15:19.042Z,2.85
2017-06-16T06:17:47.364Z,1.98
2017-06-16T06:20:15.650Z,2.00
2017-06-16T06:22:44.010Z,2.00
2017-06-16T06:25:12.280Z,3.58
2017-06-16T06:27:40.588Z,2.22
2017-06-16T06:30:08.892Z,2.08
2017-06-16T06:32:37.981Z,2.55
2017-06-16T06:35:07.023Z,1.83
2017-06-16T06:37:35.338Z,2.65
2017-06-16T06:40:03.627Z,1.90
2017-06-16T06:42:32.703Z,1.77
2017-06-16T06:45:01.018Z,2.72
2017-06-16T06:47:29.318Z,1.80
2017-06-16T06:49:57.838Z,1.80
2017-06-16T06:52:26.131Z,2.20
2017-06-16T06:54:54.447Z,2.42
2017-06-16T06:57:22.716Z,2.30
2017-06-16T06:59:51.003Z,2.35
2017-06-16T07:02:19.407Z,2.37
2017-06-16T07:04:47.720Z,2.25
2017-06-16T07:07:15.979Z,2.10
2017-06-16T07:09:44.287Z,2.70
2017-06-16T07:12:12.585Z,2.65
2017-06-16T07:14:40.872Z,1.83
2017-06-16T07:17:09.190Z,2.45
2017-06-16T07:19:37.480Z,2.40
2017-06-16T07:22:05.776Z,1.98
2017-06-16T07:24:34.817Z,2.20
2017-06-16T07:27:03.115Z,2.28
2017-06-16T07:29:31.404Z,2.50
2017-06-16T07:31:59.791Z,2.00
2017-06-16T07:34:28.920Z,2.70
2017-06-16T07:36:57.215Z,2.10
2017-06-16T07:39:25.492Z,1.70
2017-06-16T07:41:53.814Z,2.75
2017-06-16T07:44:22.116Z,2.20
2017-06-16T07:46:51.158Z,2.25
2017-06-16T07:49:19.451Z,2.25
2017-06-16T07:51:48.532Z,1.92
2017-06-16T07:54:16.819Z,2.37
2017-06-16T07:56:45.104Z,2.12
2017-06-16T07:59:13.393Z,2.05
2017-06-16T08:01:41.656Z,1.60
2017-06-16T08:04:09.968Z,3.25
2017-06-16T08:06:39.074Z,1.90
2017-06-16T08:09:07.370Z,2.05
2017-06-16T08:11:35.676Z,2.15
2017-06-16T08:14:04.124Z,2.25
2017-06-16T08:16:32.624Z,2.30
2017-06-16T08:19:00.925Z,2.17
2017-06-16T08:21:29.270Z,2.35
2017-06-16T08:23:57.647Z,2.20
2017-06-16T08:26:25.936Z,2.15
2017-06-16T08:28:54.234Z,2.22
2017-06-16T08:31:22.564Z,1.75
2017-06-16T08:33:50.895Z,2.10
2017-06-16T08:36:19.230Z,1.90
2017-06-16T08:38:47.532Z,1.80
2017-06-16T08:41:15.860Z,2.00
2017-06-16T08:43:44.970Z,2.30
2017-06-16T08:46:13.243Z,1.95
2017-06-16T08:48:41.546Z,1.80
2017-06-16T08:51:09.839Z,1.83
2017-06-16T08:53:38.211Z,2.17
2017-06-16T08:56:06.494Z,1.90
2017-06-16T08:58:34.802Z,2.10
2017-06-16T09:01:03.069Z,1.95
2017-06-16T09:03:31.354Z,2.70
2017-06-16T09:05:59.624Z,2.40
2017-06-16T09:08:28.045Z,2.03
2017-06-16T09:10:56.379Z,2.25
2017-06-16T09:13:24.730Z,1.95
2017-06-16T09:15:53.254Z,2.10
2017-06-16T09:18:21.627Z,2.40
2017-06-16T09:20:49.917Z,2.58
2017-06-16T09:23:18.193Z,2.40
2017-06-16T09:25:46.483Z,2.08
2017-06-16T09:28:14.765Z,2.37
2017-06-16T09:30:44.123Z,3.28
2017-06-16T09:33:12.429Z,2.20
2017-06-16T09:35:40.849Z,2.30
2017-06-16T09:38:09.307Z,2.05
2017-06-16T09:40:37.687Z,2.65
2017-06-16T09:43:06.724Z,2.25
2017-06-16T09:45:35.029Z,2.53
2017-06-16T09:48:03.315Z,2.40
2017-06-16T09:50:31.612Z,2.20
2017-06-16T09:53:00.655Z,2.10
2017-06-16T09:55:28.955Z,2.60
2017-06-16T09:57:57.230Z,3.22
2017-06-16T10:00:25.517Z,2.53
2017-06-16T10:02:53.780Z,2.90
2017-06-16T10:05:22.060Z,2.85
2017-06-16T10:07:50.348Z,2.90
2017-06-16T10:10:18.619Z,2.55
2017-06-16T10:12:46.904Z,2.50
2017-06-16T10:15:15.177Z,2.90
2017-06-16T10:17:43.461Z,2.70
2017-06-16T10:20:11.737Z,2.55
2017-06-16T10:22:40.023Z,2.30
2017-06-16T10:25:09.065Z,2.72
2017-06-16T10:27:37.356Z,2.78
2017-06-16T10:30:05.618Z,2.72
2017-06-16T10:32:33.925Z,2.50
2017-06-16T10:35:02.187Z,2.70
2017-06-16T10:37:30.490Z,2.30
2017-06-16T10:39:58.761Z,2.50
2017-06-16T10:42:27.046Z,2.83
2017-06-16T10:44:55.361Z,4.18
2017-06-16T10:47:23.660Z,2.87
2017-06-16T10:49:51.975Z,2.20
2017-06-16T10:52:20.256Z,2.10
2017-06-16T10:54:48.568Z,2.80
2017-06-16T10:57:16.844Z,2.58
2017-06-16T10:59:45.152Z,3.05
2017-06-16T11:02:13.435Z,3.00
2017-06-16T11:04:41.727Z,2.60
2017-06-16T11:07:10.096Z,2.50
2017-06-16T11:09:38.409Z,2.87
2017-06-16T11:12:06.756Z,2.70
2017-06-16T11:14:35.051Z,2.15
2017-06-16T11:17:03.351Z,2.60
2017-06-16T11:19:31.627Z,2.75
2017-06-16T11:21:59.936Z,2.37
2017-06-16T11:24:28.216Z,3.00
2017-06-16T11:26:56.515Z,3.37
2017-06-16T11:29:25.581Z,3.08
2017-06-16T11:31:53.863Z,2.40
2017-06-16T11:34:22.209Z,2.55
2017-06-16T11:36:50.516Z,3.03
2017-06-16T11:39:18.811Z,2.70
2017-06-16T11:41:47.872Z,2.78
2017-06-16T11:44:16.159Z,2.92
2017-06-16T11:46:44.497Z,2.80
2017-06-16T11:49:12.787Z,2.53
2017-06-16T11:51:41.137Z,3.12
2017-06-16T11:54:09.767Z,2.97
2017-06-16T11:56:38.057Z,2.45
2017-06-16T11:59:06.355Z,3.05
2017-06-16T12:01:34.648Z,3.45
2017-06-16T12:04:02.947Z,2.85
2017-06-16T12:06:31.241Z,2.67
2017-06-16T12:08:59.587Z,2.75
2017-06-16T12:11:27.903Z,3.20
2017-06-16T12:13:56.261Z,3.47
2017-06-16T12:16:24.665Z,2.70
2017-06-16T12:18:53.001Z,2.95
2017-06-16T12:21:22.047Z,3.00
2017-06-16T12:23:50.344Z,3.00
2017-06-16T12:26:18.639Z,3.00
2017-06-16T12:28:47.707Z,3.75
2017-06-16T12:31:16.023Z,2.50
2017-06-16T12:33:44.322Z,3.40
2017-06-16T12:36:12.843Z,2.80
2017-06-16T12:38:41.176Z,2.95
2017-06-16T12:41:10.248Z,3.72
2017-06-16T12:43:38.523Z,2.20
2017-06-16T12:46:06.843Z,2.90
2017-06-16T12:48:35.110Z,2.70
2017-06-16T12:51:04.179Z,3.28
2017-06-16T12:53:32.455Z,3.20
2017-06-16T12:56:00.753Z,2.60
2017-06-16T12:58:29.999Z,2.60
2017-06-16T13:00:58.300Z,2.72
2017-06-16T13:03:26.623Z,2.90
2017-06-16T13:05:54.932Z,2.72
2017-06-16T13:08:23.231Z,2.37
2017-06-16T13:10:51.578Z,3.20
2017-06-16T13:13:19.856Z,2.70
2017-06-16T13:15:48.172Z,2.75
2017-06-16T13:18:16.452Z,2.67
2017-06-16T13:20:44.732Z,2.42
2017-06-16T13:23:13.036Z,3.00
2017-06-16T13:25:41.336Z,2.83
2017-06-16T13:28:09.812Z,2.40
2017-06-16T13:30:38.089Z,2.90
2017-06-16T13:33:06.381Z,3.50
2017-06-16T13:35:34.648Z,3.03
2017-06-16T13:38:02.943Z,2.90
2017-06-16T13:40:31.988Z,2.90
2017-06-16T13:43:00.280Z,3.03
2017-06-16T13:45:28.556Z,2.65
2017-06-16T13:47:56.919Z,3.28
2017-06-16T13:50:25.200Z,2.85
2017-06-16T13:52:53.509Z,2.87
2017-06-16T13:55:21.797Z,2.80
2017-06-16T13:57:50.241Z,3.05
2017-06-16T14:00:18.532Z,3.70
2017-06-16T14:02:46.821Z,2.92
2017-06-16T14:05:15.160Z,2.83
2017-06-16T14:07:43.488Z,3.05
2017-06-16T14:10:11.862Z,3.33
2017-06-16T14:12:40.157Z,2.85
2017-06-16T14:15:08.472Z,3.28
2017-06-16T14:17:36.768Z,2.87
2017-06-16T14:20:05.083Z,2.85
2017-06-16T14:22:34.124Z,2.65
2017-06-16T14:25:02.533Z,3.00
2017-06-16T14:27:30.805Z,2.70
2017-06-16T14:29:59.154Z,3.70
2017-06-16T14:32:27.501Z,3.25
2017-06-16T14:34:56.619Z,3.40
2017-06-16T14:37:25.144Z,3.10
2017-06-16T14:39:53.529Z,2.70
2017-06-16T14:42:21.972Z,2.87
2017-06-16T14:44:50.328Z,2.80
2017-06-16T14:47:18.650Z,2.60
2017-06-16T14:49:46.960Z,3.08
2017-06-16T14:52:15.251Z,2.92
2017-06-16T14:54:43.524Z,2.80
2017-06-16T14:57:12.579Z,2.85
2017-06-16T14:59:40.896Z,2.80
2017-06-16T15:02:09.292Z,2.80
2017-06-16T15:04:38.319Z,2.90
2017-06-16T15:07:07.462Z,2.70
2017-06-16T15:09:36.796Z,3.10
2017-06-16T15:12:05.100Z,2.87
2017-06-16T15:14:33.375Z,2.30
2017-06-16T15:17:01.691Z,2.70
2017-06-16T15:19:29.968Z,3.10
2017-06-16T15:21:58.268Z,2.97
2017-06-16T15:24:27.422Z,2.15
2017-06-16T15:27:01.001Z,2.85
2017-06-16T15:33:16.756Z,3.85
2017-06-16T15:35:55.894Z,2.75
2017-06-16T15:47:34.412Z,3.05
2017-06-16T15:53:10.865Z,2.95
2017-06-16T15:55:53.652Z,3.12
2017-06-16T16:04:24.351Z,3.22
2017-06-16T16:07:18.781Z,2.75
2017-06-16T16:13:03.834Z,2.10
2017-06-16T16:18:37.539Z,3.20
2017-06-16T16:21:23.334Z,2.67
2017-06-16T16:24:06.519Z,2.95
2017-06-16T16:29:33.795Z,2.30
2017-06-16T16:32:16.429Z,2.45
2017-06-16T16:34:57.947Z,2.22
2017-06-16T16:37:37.550Z,3.03
2017-06-16T16:40:16.148Z,2.55
2017-06-16T16:43:02.434Z,3.03
2017-06-16T16:45:54.143Z,2.85
2017-06-16T16:48:33.019Z,2.47
2017-06-16T16:51:10.520Z,3.03
2017-06-16T16:54:04.782Z,2.70
2017-06-16T16:56:38.667Z,2.75
2017-06-16T16:59:16.910Z,2.75
2017-06-16T17:02:03.494Z,2.40
2017-06-16T17:04:44.786Z,2.78
2017-06-16T17:07:17.857Z,2.85
2017-06-16T17:09:53.228Z,2.42
2017-06-16T17:12:24.737Z,2.60
2017-06-16T17:14:53.026Z,3.00
2017-06-16T17:17:22.065Z,2.72
2017-06-16T17:19:50.599Z,2.80
2017-06-16T17:22:18.901Z,3.08
2017-06-16T17:24:48.012Z,3.03
2017-06-16T17:27:16.388Z,2.85
2017-06-16T17:29:44.671Z,2.60
2017-06-16T17:32:13.163Z,2.42
2017-06-16T17:34:41.670Z,3.17
2017-06-16T17:37:09.975Z,2.62
2017-06-16T17:39:38.264Z,2.60
2017-06-16T17:42:06.760Z,2.80
2017-06-16T17:44:35.048Z,2.55
2017-06-16T17:47:03.351Z,2.95
2017-06-16T17:49:31.643Z,3.25
2017-06-16T17:51:59.928Z,2.92
2017-06-16T17:54:28.206Z,3.00
2017-06-16T17:56:56.498Z,3.20
2017-06-16T17:59:24.803Z,2.67
2017-06-16T18:01:53.094Z,2.75
2017-06-16T18:04:21.355Z,3.00
2017-06-16T18:06:49.652Z,2.42
2017-06-16T18:09:17.929Z,2.70
2017-06-16T18:11:46.197Z,2.70
2017-06-16T18:14:14.481Z,2.55
2017-06-16T18:16:42.742Z,2.75
2017-06-16T18:19:11.035Z,2.75
2017-06-16T18:21:39.304Z,3.70
2017-06-16T18:24:07.601Z,2.90
2017-06-16T18:26:35.875Z,2.65
2017-06-16T18:29:04.166Z,2.75
2017-06-16T18:31:32.439Z,2.60
2017-06-16T18:34:00.722Z,3.05
2017-06-16T18:36:28.996Z,3.00
2017-06-16T18:38:57.299Z,2.87
2017-06-16T18:41:25.584Z,2.53
2017-06-16T18:43:53.894Z,2.67
2017-06-16T18:46:22.163Z,2.75
2017-06-16T18:48:50.475Z,2.65
2017-06-16T18:51:18.767Z,3.28
2017-06-16T18:53:47.041Z,3.53
2017-06-16T18:56:15.323Z,3.28
2017-06-16T18:58:43.603Z,2.50
2017-06-16T19:01:11.894Z,2.67
2017-06-16T19:03:40.180Z,2.85
2017-06-16T19:06:08.461Z,3.17
2017-06-16T19:08:36.725Z,2.70
2017-06-16T19:11:05.826Z,3.20
2017-06-16T19:13:34.092Z,2.97
2017-06-16T19:16:02.375Z,2.50
2017-06-16T19:18:30.693Z,3.70
2017-06-16T19:20:59.743Z,3.78
2017-06-16T19:23:28.023Z,2.62
2017-06-16T19:25:56.294Z,2.87
2017-06-16T19:28:24.606Z,2.80
2017-06-16T19:30:53.636Z,3.20
2017-06-16T19:33:21.940Z,2.95
2017-06-16T19:35:50.204Z,3.10
2017-06-16T19:38:18.505Z,2.78
2017-06-16T19:40:46.771Z,3.45
2017-06-16T19:43:15.067Z,4.00
2017-06-16T19:45:43.338Z,2.75
2017-06-16T19:48:11.617Z,3.70
2017-06-16T19:50:39.885Z,3.45
2017-06-16T19:53:08.192Z,2.80
2017-06-16T19:55:37.622Z,3.20
2017-06-16T19:58:05.951Z,3.05
2017-06-16T20:00:34.413Z,3.08
2017-06-16T20:03:02.842Z,3.45
2017-06-16T20:05:31.212Z,3.05
2017-06-16T20:08:00.247Z,3.50
2017-06-16T20:10:28.541Z,3.40
2017-06-16T20:12:56.807Z,3.70
2017-06-16T20:15:25.099Z,3.75
2017-06-16T20:17:53.376Z,3.22
2017-06-16T20:20:21.659Z,3.40
2017-06-16T20:22:49.933Z,3.60
2017-06-16T20:25:18.220Z,3.22
2017-06-16T20:27:46.508Z,3.53
2017-06-16T20:30:15.058Z,3.80
2017-06-16T20:32:43.489Z,3.75
2017-06-16T20:35:13.372Z,3.12
2017-06-16T20:37:41.652Z,2.97
2017-06-16T20:40:09.921Z,4.03
2017-06-16T20:42:38.212Z,3.05
2017-06-16T20:45:06.481Z,3.30
2017-06-16T20:47:34.768Z,4.18
2017-06-16T20:50:03.045Z,3.45
2017-06-16T20:52:31.331Z,3.45
2017-06-16T20:54:59.616Z,3.78
2017-06-16T20:57:27.918Z,3.90
2017-06-16T20:59:56.191Z,3.15
2017-06-16T21:02:24.501Z,3.30
2017-06-16T21:04:52.812Z,3.53
2017-06-16T21:07:21.096Z,4.15
2017-06-16T21:09:50.143Z,3.30
2017-06-16T21:12:18.427Z,3.72
2017-06-16T21:14:46.720Z,3.78
2017-06-16T21:17:14.983Z,2.85
2017-06-16T21:19:43.293Z,4.12
2017-06-16T21:22:29.465Z,3.20
2017-06-16T21:24:57.754Z,3.33
2017-06-16T21:27:26.035Z,4.18
2017-06-16T21:29:54.337Z,3.45
2017-06-16T21:32:22.608Z,2.80
2017-06-16T21:34:50.895Z,3.62
2017-06-16T21:37:19.935Z,3.33
2017-06-16T21:39:48.244Z,2.78
2017-06-16T21:42:16.521Z,2.87
2017-06-16T21:44:44.787Z,2.90
2017-06-16T21:47:13.083Z,3.60
2017-06-16T21:49:42.126Z,3.53
2017-06-16T21:52:10.403Z,3.00
2017-06-16T21:54:38.680Z,3.08
2017-06-16T21:57:06.980Z,3.03
2017-06-16T21:59:35.263Z,2.95
2017-06-16T22:02:03.569Z,4.12
2017-06-16T22:04:32.619Z,3.70
2017-06-16T22:07:00.907Z,3.65
2017-06-16T22:09:29.179Z,3.03
2017-06-16T22:11:57.471Z,2.72
2017-06-16T22:14:25.747Z,3.45
2017-06-16T22:16:54.068Z,2.70
2017-06-16T22:19:23.092Z,3.15
2017-06-16T22:21:51.368Z,2.50
2017-06-16T22:24:19.663Z,3.30
2017-06-16T22:26:47.940Z,2.90
2017-06-16T22:29:16.247Z,2.47
2017-06-16T22:31:44.523Z,3.70
2017-06-16T22:34:12.820Z,2.60
2017-06-16T22:36:41.100Z,3.50
2017-06-16T22:39:09.393Z,3.20
2017-06-16T22:41:37.667Z,2.70
2017-06-16T22:44:05.981Z,2.40
2017-06-16T22:46:34.243Z,3.58
2017-06-16T22:49:02.570Z,3.35
2017-06-16T22:51:30.841Z,2.70
2017-06-16T22:53:59.123Z,3.67
2017-06-16T22:56:27.412Z,3.10
2017-06-16T22:58:56.471Z,2.95
2017-06-16T23:01:24.763Z,3.62
2017-06-16T23:03:53.052Z,3.25
2017-06-16T23:06:22.158Z,3.10
2017-06-16T23:08:51.200Z,2.60
2017-06-16T23:11:19.487Z,3.12
2017-06-16T23:13:47.755Z,2.97
2017-06-16T23:16:16.051Z,2.97
2017-06-16T23:18:44.355Z,3.40
2017-06-16T23:21:13.436Z,3.70
2017-06-16T23:23:41.708Z,2.70
2017-06-16T23:26:10.050Z,2.80
2017-06-16T23:28:38.340Z,3.05
2017-06-16T23:31:06.608Z,2.85
2017-06-16T23:33:34.897Z,3.30
2017-06-16T23:36:03.163Z,3.03
2017-06-16T23:38:31.451Z,2.92
2017-06-16T23:40:59.733Z,3.00
2017-06-16T23:43:28.014Z,3.00
2017-06-16T23:45:56.289Z,2.85
2017-06-16T23:48:24.584Z,3.47
2017-06-16T23:50:52.852Z,3.22
2017-06-16T23:53:21.139Z,3.05
2017-06-16T23:55:49.418Z,3.62
2017-06-16T23:58:17.703Z,3.45
